sensor_id;sensor_type;location;lat;lon;timestamp;P1;durP1;ratioP1;P2;durP2;ratioP2
52248;SDS011;38541;48.130;8.378;2022-08-06T00:02:36;5.07;;;4.28;;
52248;SDS011;38541;48.130;8.378;2022-08-06T00:05:03;4.40;;;3.83;;
52248;SDS011;38541;48.130;8.378;2022-08-06T00:07:32;4.68;;;4.28;;
52248;SDS011;38541;48.130;8.378;2022-08-06T00:10:13;5.55;;;4.95;;
52248;SDS011;38541;48.130;8.378;2022-08-06T00:12:43;5.10;;;4.32;;
52248;SDS011;38541;48.130;8.378;2022-08-06T00:15:14;5.40;;;4.32;;
52248;SDS011;38541;48.130;8.378;2022-08-06T00:17:45;4.10;;;3.70;;
52248;SDS011;38541;48.130;8.378;2022-08-06T00:20:13;5.55;;;4.75;;
52248;SDS011;38541;48.130;8.378;2022-08-06T00:22:56;5.45;;;4.78;;
52248;SDS011;38541;48.130;8.378;2022-08-06T00:25:24;4.55;;;4.13;;
52248;SDS011;38541;48.130;8.378;2022-08-06T00:27:51;5.43;;;4.40;;
52248;SDS011;38541;48.130;8.378;2022-08-06T00:30:18;5.30;;;4.00;;
52248;SDS011;38541;48.130;8.378;2022-08-06T00:32:48;4.35;;;3.95;;
52248;SDS011;38541;48.130;8.378;2022-08-06T00:35:18;4.97;;;4.28;;
52248;SDS011;38541;48.130;8.378;2022-08-06T00:37:47;3.85;;;3.50;;
52248;SDS011;38541;48.130;8.378;2022-08-06T00:40:24;4.35;;;3.95;;
52248;SDS011;38541;48.130;8.378;2022-08-06T00:42:54;4.93;;;3.65;;
52248;SDS011;38541;48.130;8.378;2022-08-06T00:45:23;3.65;;;3.30;;
52248;SDS011;38541;48.130;8.378;2022-08-06T00:47:51;4.32;;;3.92;;
52248;SDS011;38541;48.130;8.378;2022-08-06T00:50:29;4.18;;;3.60;;
52248;SDS011;38541;48.130;8.378;2022-08-06T00:52:57;4.78;;;3.58;;
52248;SDS011;38541;48.130;8.378;2022-08-06T00:55:26;4.47;;;3.92;;
52248;SDS011;38541;48.130;8.378;2022-08-06T00:58:01;3.95;;;3.50;;
52248;SDS011;38541;48.130;8.378;2022-08-06T01:00:30;3.30;;;2.90;;
52248;SDS011;38541;48.130;8.378;2022-08-06T01:03:06;3.38;;;3.08;;
52248;SDS011;38541;48.130;8.378;2022-08-06T01:05:53;3.45;;;3.13;;
52248;SDS011;38541;48.130;8.378;2022-08-06T01:08:40;2.78;;;2.58;;
52248;SDS011;38541;48.130;8.378;2022-08-06T01:11:10;4.50;;;3.47;;
52248;SDS011;38541;48.130;8.378;2022-08-06T01:13:38;2.67;;;2.47;;
52248;SDS011;38541;48.130;8.378;2022-08-06T01:16:27;2.80;;;2.60;;
52248;SDS011;38541;48.130;8.378;2022-08-06T01:21:51;3.10;;;2.30;;
52248;SDS011;38541;48.130;8.378;2022-08-06T01:30:12;2.20;;;2.00;;
52248;SDS011;38541;48.130;8.378;2022-08-06T01:32:50;3.63;;;2.63;;
52248;SDS011;38541;48.130;8.378;2022-08-06T01:35:29;1.98;;;1.85;;
52248;SDS011;38541;48.130;8.378;2022-08-06T01:38:27;2.55;;;2.35;;
52248;SDS011;38541;48.130;8.378;2022-08-06T01:41:02;3.03;;;2.45;;
52248;SDS011;38541;48.130;8.378;2022-08-06T01:43:31;2.70;;;2.50;;
52248;SDS011;38541;48.130;8.378;2022-08-06T01:46:19;2.42;;;2.22;;
52248;SDS011;38541;48.130;8.378;2022-08-06T01:48:48;2.40;;;2.20;;
52248;SDS011;38541;48.130;8.378;2022-08-06T01:51:19;2.70;;;2.50;;
52248;SDS011;38541;48.130;8.378;2022-08-06T01:54:08;2.25;;;2.05;;
52248;SDS011;38541;48.130;8.378;2022-08-06T01:56:39;3.10;;;2.45;;
52248;SDS011;38541;48.130;8.378;2022-08-06T01:59:30;2.10;;;2.00;;
52248;SDS011;38541;48.130;8.378;2022-08-06T02:02:03;2.10;;;2.00;;
52248;SDS011;38541;48.130;8.378;2022-08-06T02:04:36;2.20;;;2.00;;
52248;SDS011;38541;48.130;8.378;2022-08-06T02:07:09;2.35;;;2.15;;
52248;SDS011;38541;48.130;8.378;2022-08-06T02:09:59;1.80;;;1.70;;
52248;SDS011;38541;48.130;8.378;2022-08-06T02:12:28;2.97;;;2.25;;
52248;SDS011;38541;48.130;8.378;2022-08-06T02:15:01;2.53;;;2.22;;
52248;SDS011;38541;48.130;8.378;2022-08-06T02:17:34;1.85;;;1.75;;
52248;SDS011;38541;48.130;8.378;2022-08-06T02:20:27;2.75;;;2.05;;
52248;SDS011;38541;48.130;8.378;2022-08-06T02:23:03;2.00;;;1.80;;
52248;SDS011;38541;48.130;8.378;2022-08-06T02:25:35;2.08;;;1.98;;
52248;SDS011;38541;48.130;8.378;2022-08-06T02:28:06;1.80;;;1.70;;
52248;SDS011;38541;48.130;8.378;2022-08-06T02:30:35;2.10;;;1.90;;
52248;SDS011;38541;48.130;8.378;2022-08-06T02:33:08;1.98;;;1.88;;
52248;SDS011;38541;48.130;8.378;2022-08-06T02:35:54;2.17;;;2.08;;
52248;SDS011;38541;48.130;8.378;2022-08-06T02:38:30;3.00;;;2.03;;
52248;SDS011;38541;48.130;8.378;2022-08-06T02:41:15;2.78;;;1.95;;
52248;SDS011;38541;48.130;8.378;2022-08-06T02:43:49;2.20;;;2.00;;
52248;SDS011;38541;48.130;8.378;2022-08-06T02:46:35;2.28;;;1.77;;
52248;SDS011;38541;48.130;8.378;2022-08-06T02:49:09;1.90;;;1.80;;
52248;SDS011;38541;48.130;8.378;2022-08-06T02:51:55;1.75;;;1.63;;
52248;SDS011;38541;48.130;8.378;2022-08-06T02:55:01;1.92;;;1.83;;
52248;SDS011;38541;48.130;8.378;2022-08-06T02:57:33;1.85;;;1.55;;
52248;SDS011;38541;48.130;8.378;2022-08-06T03:00:17;2.40;;;2.20;;
52248;SDS011;38541;48.130;8.378;2022-08-06T03:02:55;1.88;;;1.77;;
52248;SDS011;38541;48.130;8.378;2022-08-06T03:05:25;1.83;;;1.67;;
52248;SDS011;38541;48.130;8.378;2022-08-06T03:08:16;1.80;;;1.55;;
52248;SDS011;38541;48.130;8.378;2022-08-06T03:10:47;1.98;;;1.48;;
52248;SDS011;38541;48.130;8.378;2022-08-06T03:13:17;4.47;;;2.30;;
52248;SDS011;38541;48.130;8.378;2022-08-06T03:15:45;1.60;;;1.50;;
52248;SDS011;38541;48.130;8.378;2022-08-06T03:18:26;1.70;;;1.60;;
52248;SDS011;38541;48.130;8.378;2022-08-06T03:20:53;2.80;;;1.70;;
52248;SDS011;38541;48.130;8.378;2022-08-06T03:23:22;2.83;;;1.67;;
52248;SDS011;38541;48.130;8.378;2022-08-06T03:25:52;1.95;;;1.85;;
52248;SDS011;38541;48.130;8.378;2022-08-06T03:28:21;1.60;;;1.50;;
52248;SDS011;38541;48.130;8.378;2022-08-06T03:30:50;2.75;;;1.88;;
52248;SDS011;38541;48.130;8.378;2022-08-06T03:33:21;2.42;;;2.20;;
52248;SDS011;38541;48.130;8.378;2022-08-06T03:36:09;2.13;;;1.70;;
52248;SDS011;38541;48.130;8.378;2022-08-06T03:38:46;2.58;;;1.73;;
52248;SDS011;38541;48.130;8.378;2022-08-06T03:41:21;1.83;;;1.73;;
52248;SDS011;38541;48.130;8.378;2022-08-06T03:44:04;2.00;;;1.90;;
52248;SDS011;38541;48.130;8.378;2022-08-06T03:46:37;1.88;;;1.77;;
52248;SDS011;38541;48.130;8.378;2022-08-06T03:49:20;1.52;;;1.42;;
52248;SDS011;38541;48.130;8.378;2022-08-06T03:52:06;1.83;;;1.73;;
52248;SDS011;38541;48.130;8.378;2022-08-06T03:54:42;1.60;;;1.50;;
52248;SDS011;38541;48.130;8.378;2022-08-06T03:57:14;2.15;;;2.00;;
52248;SDS011;38541;48.130;8.378;2022-08-06T03:59:48;2.20;;;1.88;;
52248;SDS011;38541;48.130;8.378;2022-08-06T04:02:27;1.95;;;1.52;;
52248;SDS011;38541;48.130;8.378;2022-08-06T04:05:12;2.30;;;1.77;;
52248;SDS011;38541;48.130;8.378;2022-08-06T04:07:42;1.85;;;1.75;;
52248;SDS011;38541;48.130;8.378;2022-08-06T04:10:22;2.25;;;1.52;;
52248;SDS011;38541;48.130;8.378;2022-08-06T04:13:00;2.40;;;1.77;;
52248;SDS011;38541;48.130;8.378;2022-08-06T04:15:50;1.70;;;1.60;;
52248;SDS011;38541;48.130;8.378;2022-08-06T04:18:29;1.58;;;1.48;;
52248;SDS011;38541;48.130;8.378;2022-08-06T04:21:12;1.58;;;1.40;;
52248;SDS011;38541;48.130;8.378;2022-08-06T04:24:02;2.08;;;1.50;;
52248;SDS011;38541;48.130;8.378;2022-08-06T04:26:29;1.75;;;1.65;;
52248;SDS011;38541;48.130;8.378;2022-08-06T04:28:58;1.60;;;1.50;;
52248;SDS011;38541;48.130;8.378;2022-08-06T04:31:28;2.10;;;1.70;;
52248;SDS011;38541;48.130;8.378;2022-08-06T04:34:18;2.20;;;1.98;;
52248;SDS011;38541;48.130;8.378;2022-08-06T04:36:54;1.60;;;1.50;;
52248;SDS011;38541;48.130;8.378;2022-08-06T04:39:23;2.03;;;1.30;;
52248;SDS011;38541;48.130;8.378;2022-08-06T04:42:11;1.70;;;1.60;;
52248;SDS011;38541;48.130;8.378;2022-08-06T04:44:41;2.40;;;1.55;;
52248;SDS011;38541;48.130;8.378;2022-08-06T04:47:10;2.20;;;2.00;;
52248;SDS011;38541;48.130;8.378;2022-08-06T04:49:45;1.85;;;1.73;;
52248;SDS011;38541;48.130;8.378;2022-08-06T04:52:32;1.77;;;1.67;;
52248;SDS011;38541;48.130;8.378;2022-08-06T04:55:14;1.45;;;1.35;;
52248;SDS011;38541;48.130;8.378;2022-08-06T04:57:51;2.05;;;1.83;;
52248;SDS011;38541;48.130;8.378;2022-08-06T05:00:32;2.03;;;1.83;;
52248;SDS011;38541;48.130;8.378;2022-08-06T05:03:21;2.85;;;1.90;;
52248;SDS011;38541;48.130;8.378;2022-08-06T05:06:09;2.70;;;1.45;;
52248;SDS011;38541;48.130;8.378;2022-08-06T05:08:41;1.60;;;1.50;;
52248;SDS011;38541;48.130;8.378;2022-08-06T05:11:22;2.25;;;1.30;;
52248;SDS011;38541;48.130;8.378;2022-08-06T05:13:57;1.95;;;1.67;;
52248;SDS011;38541;48.130;8.378;2022-08-06T05:16:35;1.88;;;1.55;;
52248;SDS011;38541;48.130;8.378;2022-08-06T05:19:19;1.73;;;1.63;;
52248;SDS011;38541;48.130;8.378;2022-08-06T05:21:52;2.90;;;1.38;;
52248;SDS011;38541;48.130;8.378;2022-08-06T05:24:37;1.30;;;1.20;;
52248;SDS011;38541;48.130;8.378;2022-08-06T05:27:24;1.35;;;1.25;;
52248;SDS011;38541;48.130;8.378;2022-08-06T05:30:11;1.73;;;1.50;;
52248;SDS011;38541;48.130;8.378;2022-08-06T05:32:44;1.60;;;1.48;;
52248;SDS011;38541;48.130;8.378;2022-08-06T05:35:19;2.30;;;1.38;;
52248;SDS011;38541;48.130;8.378;2022-08-06T05:37:48;1.73;;;1.63;;
52248;SDS011;38541;48.130;8.378;2022-08-06T05:40:27;1.35;;;1.25;;
52248;SDS011;38541;48.130;8.378;2022-08-06T05:43:18;2.30;;;1.45;;
52248;SDS011;38541;48.130;8.378;2022-08-06T05:45:46;1.50;;;1.30;;
52248;SDS011;38541;48.130;8.378;2022-08-06T05:48:15;2.05;;;1.30;;
52248;SDS011;38541;48.130;8.378;2022-08-06T05:50:56;1.60;;;1.50;;
52248;SDS011;38541;48.130;8.378;2022-08-06T05:53:35;2.00;;;1.60;;
52248;SDS011;38541;48.130;8.378;2022-08-06T05:56:29;2.95;;;1.48;;
52248;SDS011;38541;48.130;8.378;2022-08-06T05:59:06;1.40;;;1.30;;
52248;SDS011;38541;48.130;8.378;2022-08-06T06:01:57;2.05;;;1.38;;
52248;SDS011;38541;48.130;8.378;2022-08-06T06:04:24;1.67;;;1.42;;
52248;SDS011;38541;48.130;8.378;2022-08-06T06:06:58;1.48;;;1.38;;
52248;SDS011;38541;48.130;8.378;2022-08-06T06:09:29;1.48;;;1.30;;
52248;SDS011;38541;48.130;8.378;2022-08-06T06:12:17;1.63;;;1.40;;
52248;SDS011;38541;48.130;8.378;2022-08-06T06:14:58;1.60;;;1.40;;
52248;SDS011;38541;48.130;8.378;2022-08-06T06:35:02;1.70;;;1.60;;
52248;SDS011;38541;48.130;8.378;2022-08-06T06:43:08;1.98;;;1.75;;
52248;SDS011;38541;48.130;8.378;2022-08-06T06:45:37;1.77;;;1.45;;
52248;SDS011;38541;48.130;8.378;2022-08-06T06:48:32;1.60;;;1.40;;
52248;SDS011;38541;48.130;8.378;2022-08-06T06:51:07;1.75;;;1.60;;
52248;SDS011;38541;48.130;8.378;2022-08-06T06:53:56;2.25;;;1.58;;
52248;SDS011;38541;48.130;8.378;2022-08-06T06:56:44;1.60;;;1.50;;
52248;SDS011;38541;48.130;8.378;2022-08-06T06:59:18;2.75;;;1.50;;
52248;SDS011;38541;48.130;8.378;2022-08-06T07:02:14;3.05;;;1.77;;
52248;SDS011;38541;48.130;8.378;2022-08-06T07:04:49;1.85;;;1.50;;
52248;SDS011;38541;48.130;8.378;2022-08-06T07:07:16;2.25;;;1.50;;
52248;SDS011;38541;48.130;8.378;2022-08-06T07:09:49;2.03;;;1.55;;
52248;SDS011;38541;48.130;8.378;2022-08-06T07:12:25;1.73;;;1.63;;
52248;SDS011;38541;48.130;8.378;2022-08-06T07:14:59;3.40;;;1.60;;
52248;SDS011;38541;48.130;8.378;2022-08-06T07:17:28;1.80;;;1.70;;
52248;SDS011;38541;48.130;8.378;2022-08-06T07:20:14;1.48;;;1.40;;
52248;SDS011;38541;48.130;8.378;2022-08-06T07:22:45;1.50;;;1.40;;
52248;SDS011;38541;48.130;8.378;2022-08-06T07:25:35;1.75;;;1.65;;
52248;SDS011;38541;48.130;8.378;2022-08-06T07:28:18;1.85;;;1.48;;
52248;SDS011;38541;48.130;8.378;2022-08-06T07:30:47;1.83;;;1.63;;
52248;SDS011;38541;48.130;8.378;2022-08-06T07:33:15;2.33;;;2.00;;
52248;SDS011;38541;48.130;8.378;2022-08-06T07:35:44;1.70;;;1.60;;
52248;SDS011;38541;48.130;8.378;2022-08-06T07:38:14;1.73;;;1.63;;
52248;SDS011;38541;48.130;8.378;2022-08-06T07:40:43;1.70;;;1.60;;
52248;SDS011;38541;48.130;8.378;2022-08-06T07:43:19;2.30;;;1.70;;
52248;SDS011;38541;48.130;8.378;2022-08-06T07:45:58;2.15;;;1.58;;
52248;SDS011;38541;48.130;8.378;2022-08-06T07:48:35;1.60;;;1.50;;
52248;SDS011;38541;48.130;8.378;2022-08-06T07:51:05;2.00;;;1.65;;
52248;SDS011;38541;48.130;8.378;2022-08-06T07:53:33;3.08;;;1.63;;
52248;SDS011;38541;48.130;8.378;2022-08-06T07:56:22;2.75;;;1.80;;
52248;SDS011;38541;48.130;8.378;2022-08-06T07:58:51;1.67;;;1.58;;
52248;SDS011;38541;48.130;8.378;2022-08-06T08:01:23;2.65;;;1.90;;
52248;SDS011;38541;48.130;8.378;2022-08-06T08:04:01;2.53;;;2.10;;
52248;SDS011;38541;48.130;8.378;2022-08-06T08:07:04;2.00;;;1.90;;
52248;SDS011;38541;48.130;8.378;2022-08-06T08:09:38;1.88;;;1.77;;
52248;SDS011;38541;48.130;8.378;2022-08-06T08:12:26;1.55;;;1.33;;
52248;SDS011;38541;48.130;8.378;2022-08-06T08:15:01;2.17;;;2.03;;
52248;SDS011;38541;48.130;8.378;2022-08-06T08:17:29;1.95;;;1.55;;
52248;SDS011;38541;48.130;8.378;2022-08-06T08:20:07;1.70;;;1.60;;
52248;SDS011;38541;48.130;8.378;2022-08-06T08:22:42;2.10;;;1.77;;
52248;SDS011;38541;48.130;8.378;2022-08-06T08:25:16;2.42;;;1.92;;
52248;SDS011;38541;48.130;8.378;2022-08-06T08:28:03;2.30;;;1.80;;
52248;SDS011;38541;48.130;8.378;2022-08-06T08:30:38;2.28;;;1.67;;
52248;SDS011;38541;48.130;8.378;2022-08-06T08:33:08;1.90;;;1.80;;
52248;SDS011;38541;48.130;8.378;2022-08-06T08:35:41;1.73;;;1.63;;
52248;SDS011;38541;48.130;8.378;2022-08-06T08:38:25;2.58;;;1.67;;
52248;SDS011;38541;48.130;8.378;2022-08-06T08:40:55;2.03;;;1.92;;
52248;SDS011;38541;48.130;8.378;2022-08-06T08:43:29;2.20;;;2.10;;
52248;SDS011;38541;48.130;8.378;2022-08-06T08:46:19;2.88;;;1.60;;
52248;SDS011;38541;48.130;8.378;2022-08-06T08:48:56;1.80;;;1.70;;
52248;SDS011;38541;48.130;8.378;2022-08-06T08:51:26;1.77;;;1.48;;
52248;SDS011;38541;48.130;8.378;2022-08-06T08:53:55;1.60;;;1.50;;
52248;SDS011;38541;48.130;8.378;2022-08-06T08:56:24;1.58;;;1.48;;
52248;SDS011;38541;48.130;8.378;2022-08-06T08:59:11;2.35;;;1.67;;
52248;SDS011;38541;48.130;8.378;2022-08-06T09:01:58;2.72;;;1.80;;
52248;SDS011;38541;48.130;8.378;2022-08-06T09:04:26;2.15;;;2.00;;
52248;SDS011;38541;48.130;8.378;2022-08-06T09:06:54;1.98;;;1.77;;
52248;SDS011;38541;48.130;8.378;2022-08-06T09:09:23;1.73;;;1.63;;
52248;SDS011;38541;48.130;8.378;2022-08-06T09:11:57;2.03;;;1.63;;
52248;SDS011;38541;48.130;8.378;2022-08-06T09:14:34;1.95;;;1.75;;
52248;SDS011;38541;48.130;8.378;2022-08-06T09:17:03;2.00;;;1.50;;
52248;SDS011;38541;48.130;8.378;2022-08-06T09:19:37;1.80;;;1.70;;
52248;SDS011;38541;48.130;8.378;2022-08-06T09:22:07;3.35;;;2.15;;
52248;SDS011;38541;48.130;8.378;2022-08-06T09:24:35;3.28;;;2.08;;
52248;SDS011;38541;48.130;8.378;2022-08-06T09:29:52;1.90;;;1.80;;
52248;SDS011;38541;48.130;8.378;2022-08-06T09:32:44;1.63;;;1.52;;
52248;SDS011;38541;48.130;8.378;2022-08-06T09:35:27;1.80;;;1.70;;
52248;SDS011;38541;48.130;8.378;2022-08-06T09:38:10;2.70;;;1.60;;
52248;SDS011;38541;48.130;8.378;2022-08-06T09:41:02;1.73;;;1.63;;
52248;SDS011;38541;48.130;8.378;2022-08-06T09:43:41;1.73;;;1.52;;
52248;SDS011;38541;48.130;8.378;2022-08-06T09:49:14;2.97;;;1.83;;
52248;SDS011;38541;48.130;8.378;2022-08-06T09:52:09;1.58;;;1.42;;
52248;SDS011;38541;48.130;8.378;2022-08-06T09:54:47;1.70;;;1.60;;
52248;SDS011;38541;48.130;8.378;2022-08-06T09:57:19;1.60;;;1.50;;
52248;SDS011;38541;48.130;8.378;2022-08-06T10:00:02;1.98;;;1.88;;
52248;SDS011;38541;48.130;8.378;2022-08-06T10:02:39;6.00;;;2.13;;
52248;SDS011;38541;48.130;8.378;2022-08-06T10:05:11;1.58;;;1.48;;
52248;SDS011;38541;48.130;8.378;2022-08-06T10:08:01;3.28;;;1.90;;
52248;SDS011;38541;48.130;8.378;2022-08-06T10:13:17;1.63;;;1.50;;
52248;SDS011;38541;48.130;8.378;2022-08-06T10:16:14;1.67;;;1.25;;
52248;SDS011;38541;48.130;8.378;2022-08-06T10:18:47;2.00;;;1.80;;
52248;SDS011;38541;48.130;8.378;2022-08-06T10:23:53;1.60;;;1.50;;
52248;SDS011;38541;48.130;8.378;2022-08-06T10:26:26;1.58;;;1.48;;
52248;SDS011;38541;48.130;8.378;2022-08-06T10:29:06;1.70;;;1.60;;
52248;SDS011;38541;48.130;8.378;2022-08-06T10:31:34;4.20;;;1.60;;
52248;SDS011;38541;48.130;8.378;2022-08-06T10:36:36;2.25;;;2.08;;
52248;SDS011;38541;48.130;8.378;2022-08-06T10:39:14;2.30;;;2.10;;
52248;SDS011;38541;48.130;8.378;2022-08-06T10:42:02;1.88;;;1.48;;
52248;SDS011;38541;48.130;8.378;2022-08-06T10:44:43;2.17;;;1.80;;
52248;SDS011;38541;48.130;8.378;2022-08-06T10:47:12;2.20;;;1.70;;
52248;SDS011;38541;48.130;8.378;2022-08-06T10:49:58;1.92;;;1.52;;
52248;SDS011;38541;48.130;8.378;2022-08-06T10:52:46;2.45;;;2.00;;
52248;SDS011;38541;48.130;8.378;2022-08-06T10:55:15;1.58;;;1.48;;
52248;SDS011;38541;48.130;8.378;2022-08-06T10:57:41;2.20;;;1.83;;
52248;SDS011;38541;48.130;8.378;2022-08-06T11:00:09;2.40;;;2.15;;
52248;SDS011;38541;48.130;8.378;2022-08-06T11:05:36;1.95;;;1.65;;
52248;SDS011;38541;48.130;8.378;2022-08-06T11:11:16;1.90;;;1.80;;
52248;SDS011;38541;48.130;8.378;2022-08-06T11:13:56;2.20;;;2.10;;
52248;SDS011;38541;48.130;8.378;2022-08-06T11:16:29;1.88;;;1.77;;
52248;SDS011;38541;48.130;8.378;2022-08-06T11:19:02;1.50;;;1.40;;
52248;SDS011;38541;48.130;8.378;2022-08-06T11:21:43;2.90;;;1.98;;
52248;SDS011;38541;48.130;8.378;2022-08-06T11:24:28;2.40;;;1.85;;
52248;SDS011;38541;48.130;8.378;2022-08-06T11:26:54;1.60;;;1.50;;
52248;SDS011;38541;48.130;8.378;2022-08-06T11:29:26;2.20;;;1.70;;
52248;SDS011;38541;48.130;8.378;2022-08-06T11:32:41;1.98;;;1.88;;
52248;SDS011;38541;48.130;8.378;2022-08-06T11:44:20;1.40;;;1.40;;
52248;SDS011;38541;48.130;8.378;2022-08-06T11:50:02;1.85;;;1.67;;
52248;SDS011;38541;48.130;8.378;2022-08-06T11:55:15;3.30;;;2.38;;
52248;SDS011;38541;48.130;8.378;2022-08-06T12:00:54;2.15;;;1.92;;
52248;SDS011;38541;48.130;8.378;2022-08-06T12:03:40;1.98;;;1.88;;
52248;SDS011;38541;48.130;8.378;2022-08-06T12:09:05;2.78;;;2.20;;
52248;SDS011;38541;48.130;8.378;2022-08-06T12:17:16;1.55;;;1.45;;
52248;SDS011;38541;48.130;8.378;2022-08-06T12:19:46;1.98;;;1.63;;
52248;SDS011;38541;48.130;8.378;2022-08-06T12:22:33;2.78;;;1.77;;
52248;SDS011;38541;48.130;8.378;2022-08-06T12:25:05;1.85;;;1.75;;
52248;SDS011;38541;48.130;8.378;2022-08-06T12:27:38;1.92;;;1.80;;
52248;SDS011;38541;48.130;8.378;2022-08-06T12:30:19;2.40;;;2.00;;
52248;SDS011;38541;48.130;8.378;2022-08-06T12:33:03;1.60;;;1.50;;
52248;SDS011;38541;48.130;8.378;2022-08-06T12:38:26;2.33;;;1.90;;
52248;SDS011;38541;48.130;8.378;2022-08-06T12:40:57;1.95;;;1.67;;
52248;SDS011;38541;48.130;8.378;2022-08-06T12:43:26;1.65;;;1.55;;
52248;SDS011;38541;48.130;8.378;2022-08-06T12:46:11;2.45;;;1.90;;
52248;SDS011;38541;48.130;8.378;2022-08-06T12:48:49;2.20;;;1.70;;
52248;SDS011;38541;48.130;8.378;2022-08-06T12:51:17;1.90;;;1.80;;
52248;SDS011;38541;48.130;8.378;2022-08-06T12:53:52;2.05;;;1.80;;
52248;SDS011;38541;48.130;8.378;2022-08-06T12:56:20;2.00;;;1.80;;
52248;SDS011;38541;48.130;8.378;2022-08-06T12:58:57;1.85;;;1.75;;
52248;SDS011;38541;48.130;8.378;2022-08-06T13:01:27;1.60;;;1.50;;
52248;SDS011;38541;48.130;8.378;2022-08-06T13:04:15;3.58;;;2.00;;
52248;SDS011;38541;48.130;8.378;2022-08-06T13:06:44;1.90;;;1.80;;
52248;SDS011;38541;48.130;8.378;2022-08-06T13:09:15;1.95;;;1.65;;
52248;SDS011;38541;48.130;8.378;2022-08-06T13:11:43;2.15;;;1.50;;
52248;SDS011;38541;48.130;8.378;2022-08-06T13:14:16;1.85;;;1.75;;
52248;SDS011;38541;48.130;8.378;2022-08-06T13:16:45;3.42;;;1.70;;
52248;SDS011;38541;48.130;8.378;2022-08-06T13:19:22;2.85;;;2.03;;
52248;SDS011;38541;48.130;8.378;2022-08-06T13:21:59;1.65;;;1.50;;
52248;SDS011;38541;48.130;8.378;2022-08-06T13:24:31;1.65;;;1.55;;
52248;SDS011;38541;48.130;8.378;2022-08-06T13:27:00;1.90;;;1.80;;
52248;SDS011;38541;48.130;8.378;2022-08-06T13:29:30;1.60;;;1.50;;
52248;SDS011;38541;48.130;8.378;2022-08-06T13:32:23;2.35;;;1.50;;
52248;SDS011;38541;48.130;8.378;2022-08-06T13:35:06;2.00;;;1.60;;
52248;SDS011;38541;48.130;8.378;2022-08-06T13:40:35;2.80;;;1.88;;
52248;SDS011;38541;48.130;8.378;2022-08-06T13:43:07;1.40;;;1.30;;
52248;SDS011;38541;48.130;8.378;2022-08-06T13:45:34;1.67;;;1.58;;
52248;SDS011;38541;48.130;8.378;2022-08-06T13:48:21;2.20;;;1.63;;
52248;SDS011;38541;48.130;8.378;2022-08-06T13:50:49;1.90;;;1.80;;
52248;SDS011;38541;48.130;8.378;2022-08-06T13:53:16;3.78;;;1.80;;
52248;SDS011;38541;48.130;8.378;2022-08-06T13:55:43;2.00;;;1.90;;
52248;SDS011;38541;48.130;8.378;2022-08-06T13:58:28;2.50;;;1.83;;
52248;SDS011;38541;48.130;8.378;2022-08-06T14:00:55;1.98;;;1.75;;
52248;SDS011;38541;48.130;8.378;2022-08-06T14:03:23;3.22;;;1.90;;
52248;SDS011;38541;48.130;8.378;2022-08-06T14:05:51;1.90;;;1.77;;
52248;SDS011;38541;48.130;8.378;2022-08-06T14:08:19;1.55;;;1.45;;
52248;SDS011;38541;48.130;8.378;2022-08-06T14:11:00;1.65;;;1.55;;
52248;SDS011;38541;48.130;8.378;2022-08-06T14:13:28;2.35;;;1.73;;
52248;SDS011;38541;48.130;8.378;2022-08-06T14:15:55;2.75;;;1.88;;
52248;SDS011;38541;48.130;8.378;2022-08-06T14:18:26;1.60;;;1.50;;
52248;SDS011;38541;48.130;8.378;2022-08-06T14:20:53;1.75;;;1.65;;
52248;SDS011;38541;48.130;8.378;2022-08-06T14:23:21;1.75;;;1.65;;
52248;SDS011;38541;48.130;8.378;2022-08-06T14:25:48;2.95;;;1.63;;
52248;SDS011;38541;48.130;8.378;2022-08-06T14:28:28;1.88;;;1.77;;
52248;SDS011;38541;48.130;8.378;2022-08-06T14:30:56;2.45;;;1.80;;
52248;SDS011;38541;48.130;8.378;2022-08-06T14:33:25;2.38;;;1.95;;
52248;SDS011;38541;48.130;8.378;2022-08-06T14:36:04;1.95;;;1.85;;
52248;SDS011;38541;48.130;8.378;2022-08-06T14:38:33;1.92;;;1.73;;
52248;SDS011;38541;48.130;8.378;2022-08-06T14:41:00;1.55;;;1.45;;
52248;SDS011;38541;48.130;8.378;2022-08-06T14:44:06;1.50;;;1.40;;
52248;SDS011;38541;48.130;8.378;2022-08-06T14:46:51;2.13;;;1.50;;
52248;SDS011;38541;48.130;8.378;2022-08-06T14:49:18;2.72;;;1.92;;
52248;SDS011;38541;48.130;8.378;2022-08-06T14:51:45;2.30;;;1.83;;
52248;SDS011;38541;48.130;8.378;2022-08-06T14:54:32;2.03;;;1.90;;
52248;SDS011;38541;48.130;8.378;2022-08-06T14:57:02;2.95;;;1.60;;
52248;SDS011;38541;48.130;8.378;2022-08-06T14:59:41;1.63;;;1.40;;
52248;SDS011;38541;48.130;8.378;2022-08-06T15:02:14;1.80;;;1.70;;
52248;SDS011;38541;48.130;8.378;2022-08-06T15:04:41;1.75;;;1.65;;
52248;SDS011;38541;48.130;8.378;2022-08-06T15:07:11;2.35;;;1.83;;
52248;SDS011;38541;48.130;8.378;2022-08-06T15:09:51;1.77;;;1.67;;
52248;SDS011;38541;48.130;8.378;2022-08-06T15:12:38;3.53;;;2.42;;
52248;SDS011;38541;48.130;8.378;2022-08-06T15:15:16;2.65;;;1.80;;
52248;SDS011;38541;48.130;8.378;2022-08-06T15:17:44;1.50;;;1.40;;
52248;SDS011;38541;48.130;8.378;2022-08-06T15:20:30;2.35;;;2.15;;
52248;SDS011;38541;48.130;8.378;2022-08-06T15:22:57;1.55;;;1.45;;
52248;SDS011;38541;48.130;8.378;2022-08-06T15:25:25;3.05;;;1.70;;
52248;SDS011;38541;48.130;8.378;2022-08-06T15:28:12;1.90;;;1.70;;
52248;SDS011;38541;48.130;8.378;2022-08-06T15:30:39;2.03;;;1.88;;
52248;SDS011;38541;48.130;8.378;2022-08-06T15:33:12;2.15;;;1.90;;
52248;SDS011;38541;48.130;8.378;2022-08-06T15:35:38;1.90;;;1.80;;
52248;SDS011;38541;48.130;8.378;2022-08-06T15:38:24;2.00;;;1.90;;
52248;SDS011;38541;48.130;8.378;2022-08-06T15:40:52;1.90;;;1.70;;
52248;SDS011;38541;48.130;8.378;2022-08-06T15:43:19;1.80;;;1.70;;
52248;SDS011;38541;48.130;8.378;2022-08-06T15:45:49;1.90;;;1.80;;
52248;SDS011;38541;48.130;8.378;2022-08-06T15:48:24;1.88;;;1.70;;
52248;SDS011;38541;48.130;8.378;2022-08-06T15:50:57;2.38;;;1.60;;
52248;SDS011;38541;48.130;8.378;2022-08-06T15:53:48;1.98;;;1.88;;
52248;SDS011;38541;48.130;8.378;2022-08-06T15:56:22;1.85;;;1.75;;
52248;SDS011;38541;48.130;8.378;2022-08-06T15:59:00;1.80;;;1.70;;
52248;SDS011;38541;48.130;8.378;2022-08-06T16:01:31;2.13;;;1.85;;
52248;SDS011;38541;48.130;8.378;2022-08-06T16:04:18;1.67;;;1.58;;
52248;SDS011;38541;48.130;8.378;2022-08-06T16:06:48;1.80;;;1.60;;
52248;SDS011;38541;48.130;8.378;2022-08-06T16:09:15;2.25;;;2.15;;
52248;SDS011;38541;48.130;8.378;2022-08-06T16:11:54;1.95;;;1.80;;
52248;SDS011;38541;48.130;8.378;2022-08-06T16:14:24;1.65;;;1.55;;
52248;SDS011;38541;48.130;8.378;2022-08-06T16:17:04;2.47;;;1.75;;
52248;SDS011;38541;48.130;8.378;2022-08-06T16:19:35;3.13;;;1.77;;
52248;SDS011;38541;48.130;8.378;2022-08-06T16:22:15;1.70;;;1.60;;
52248;SDS011;38541;48.130;8.378;2022-08-06T16:24:43;2.72;;;1.65;;
52248;SDS011;38541;48.130;8.378;2022-08-06T16:27:10;1.85;;;1.50;;
52248;SDS011;38541;48.130;8.378;2022-08-06T16:29:45;1.70;;;1.60;;
52248;SDS011;38541;48.130;8.378;2022-08-06T16:32:15;1.60;;;1.50;;
52248;SDS011;38541;48.130;8.378;2022-08-06T16:34:51;1.92;;;1.67;;
52248;SDS011;38541;48.130;8.378;2022-08-06T16:37:22;1.98;;;1.77;;
52248;SDS011;38541;48.130;8.378;2022-08-06T16:40:05;2.00;;;1.90;;
52248;SDS011;38541;48.130;8.378;2022-08-06T16:42:34;7.30;;;1.88;;
52248;SDS011;38541;48.130;8.378;2022-08-06T16:45:01;1.70;;;1.60;;
52248;SDS011;38541;48.130;8.378;2022-08-06T16:47:40;1.48;;;1.38;;
52248;SDS011;38541;48.130;8.378;2022-08-06T16:50:28;1.80;;;1.70;;
52248;SDS011;38541;48.130;8.378;2022-08-06T16:53:02;2.28;;;1.92;;
52248;SDS011;38541;48.130;8.378;2022-08-06T16:55:50;2.47;;;2.22;;
52248;SDS011;38541;48.130;8.378;2022-08-06T16:58:18;1.50;;;1.40;;
52248;SDS011;38541;48.130;8.378;2022-08-06T17:01:01;1.52;;;1.40;;
52248;SDS011;38541;48.130;8.378;2022-08-06T17:03:52;1.67;;;1.58;;
52248;SDS011;38541;48.130;8.378;2022-08-06T17:06:26;1.52;;;1.42;;